createdAt,value
2018-09-14T00:02:10.420Z,74.73
2018-09-14T00:04:39.173Z,74.51
2018-09-14T00:07:07.960Z,74.03
2018-09-14T00:09:36.689Z,74.08
2018-09-14T00:12:05.388Z,73.84
2018-09-14T00:14:34.303Z,73.80
2018-09-14T00:17:02.962Z,73.37
2018-09-14T00:19:31.712Z,73.47
2018-09-14T00:22:00.451Z,73.28
2018-09-14T00:24:29.140Z,73.23
2018-09-14T00:26:57.915Z,73.38
2018-09-14T00:29:26.702Z,73.19
2018-09-14T00:31:55.477Z,73.33
2018-09-14T00:34:24.320Z,73.63
2018-09-14T00:36:53.197Z,74.08
2018-09-14T00:39:21.923Z,74.09
2018-09-14T00:41:50.735Z,74.31
2018-09-14T00:44:19.431Z,74.54
2018-09-14T00:46:48.115Z,74.71
2018-09-14T00:49:16.876Z,74.43
2018-09-14T00:51:45.587Z,75.32
2018-09-14T00:54:14.410Z,74.90
2018-09-14T00:56:43.159Z,74.79
2018-09-14T00:59:12.087Z,75.15
2018-09-14T01:01:40.807Z,75.65
2018-09-14T01:04:09.586Z,75.67
2018-09-14T01:06:38.367Z,75.74
2018-09-14T01:09:13.247Z,75.21
2018-09-14T01:11:42.456Z,75.22
2018-09-14T01:14:11.346Z,75.74
2018-09-14T01:16:40.098Z,75.50
2018-09-14T01:19:08.859Z,75.74
2018-09-14T01:21:37.744Z,75.54
2018-09-14T01:24:07.236Z,75.12
2018-09-14T01:26:35.933Z,75.63
2018-09-14T01:29:04.800Z,75.26
2018-09-14T01:31:33.487Z,75.07
2018-09-14T01:34:02.267Z,75.40
2018-09-14T01:36:30.981Z,75.68
2018-09-14T01:38:59.814Z,76.59
2018-09-14T01:41:28.607Z,76.26
2018-09-14T01:43:57.307Z,76.36
2018-09-14T01:46:26.039Z,76.80
2018-09-14T01:48:54.749Z,76.97
2018-09-14T01:51:23.484Z,77.14
2018-09-14T01:53:52.241Z,76.93
2018-09-14T01:56:20.895Z,77.21
2018-09-14T01:58:49.927Z,77.32
2018-09-14T02:01:18.697Z,76.94
2018-09-14T02:03:47.431Z,76.91
2018-09-14T02:06:16.227Z,76.99
2018-09-14T02:08:44.969Z,77.22
2018-09-14T02:11:13.725Z,76.87
2018-09-14T02:13:42.400Z,77.40
2018-09-14T02:16:11.218Z,77.21
2018-09-14T02:18:40.001Z,77.22
2018-09-14T02:21:08.757Z,77.29
2018-09-14T02:23:37.445Z,77.41
2018-09-14T02:26:06.150Z,77.00
2018-09-14T02:28:34.872Z,77.12
2018-09-14T02:31:03.656Z,77.11
2018-09-14T02:33:32.492Z,76.80
2018-09-14T02:36:01.247Z,77.01
2018-09-14T02:38:30.021Z,76.85
2018-09-14T02:40:58.807Z,76.77
2018-09-14T02:43:27.632Z,76.79
2018-09-14T02:45:56.486Z,77.24
2018-09-14T02:48:25.267Z,76.65
2018-09-14T02:50:54.190Z,77.27
2018-09-14T02:53:23.026Z,77.20
2018-09-14T02:55:51.925Z,77.20
2018-09-14T02:58:21.699Z,77.06
2018-09-14T03:00:50.695Z,77.63
2018-09-14T03:03:19.463Z,78.41
2018-09-14T03:05:48.275Z,78.74
2018-09-14T03:08:16.970Z,78.77
2018-09-14T03:10:45.763Z,78.75
2018-09-14T03:13:14.516Z,78.53
2018-09-14T03:15:43.299Z,78.83
2018-09-14T03:18:12.084Z,78.88
2018-09-14T03:20:40.751Z,79.00
2018-09-14T03:23:09.479Z,79.37
2018-09-14T03:25:38.158Z,78.83
2018-09-14T03:28:06.920Z,79.10
2018-09-14T03:30:35.628Z,79.18
2018-09-14T03:33:04.413Z,78.87
2018-09-14T03:35:33.164Z,79.10
2018-09-14T03:38:01.910Z,79.01
2018-09-14T03:40:30.556Z,79.45
2018-09-14T03:42:59.294Z,79.22
2018-09-14T03:45:28.151Z,79.02
2018-09-14T03:47:56.913Z,79.01
2018-09-14T03:50:26.263Z,78.74
2018-09-14T03:52:55.233Z,78.45
2018-09-14T03:55:24.019Z,79.05
2018-09-14T03:57:52.815Z,79.00
2018-09-14T04:00:23.519Z,79.11
2018-09-14T04:02:52.409Z,79.16
2018-09-14T04:05:21.153Z,79.01
2018-09-14T04:07:49.995Z,78.99
2018-09-14T04:10:18.801Z,79.03
2018-09-14T04:12:47.604Z,79.60
2018-09-14T04:15:16.305Z,79.52
2018-09-14T04:17:44.994Z,79.51
2018-09-14T04:20:13.765Z,79.65
2018-09-14T04:22:42.508Z,79.91
2018-09-14T04:25:11.242Z,79.71
2018-09-14T04:27:39.960Z,79.75
2018-09-14T04:30:10.216Z,79.15
2018-09-14T04:32:38.993Z,79.68
2018-09-14T04:35:07.823Z,79.88
2018-09-14T04:37:36.574Z,79.72
2018-09-14T04:40:05.709Z,79.40
2018-09-14T04:42:34.448Z,78.74
2018-09-14T04:45:03.180Z,78.80
2018-09-14T04:47:31.951Z,78.80
2018-09-14T04:50:00.686Z,78.81
2018-09-14T04:52:29.500Z,78.56
2018-09-14T04:54:58.228Z,78.43
2018-09-14T04:57:27.088Z,78.12
2018-09-14T04:59:56.566Z,78.32
2018-09-14T05:02:25.511Z,77.68
2018-09-14T05:04:54.397Z,77.48
2018-09-14T05:07:23.098Z,77.68
2018-09-14T05:09:52.177Z,77.20
2018-09-14T05:12:20.940Z,77.29
2018-09-14T05:14:49.879Z,76.98
2018-09-14T05:17:18.752Z,77.23
2018-09-14T05:19:47.591Z,77.22
2018-09-14T05:22:16.304Z,77.03
2018-09-14T05:24:45.106Z,76.41
2018-09-14T05:27:13.816Z,76.21
2018-09-14T05:29:42.527Z,76.15
2018-09-14T05:32:11.227Z,76.00
2018-09-14T05:34:39.900Z,75.46
2018-09-14T05:37:08.688Z,75.08
2018-09-14T05:39:37.490Z,75.84
2018-09-14T05:42:06.320Z,75.58
2018-09-14T05:44:35.089Z,75.51
2018-09-14T05:47:03.818Z,75.24
2018-09-14T05:49:45.653Z,75.04
2018-09-14T05:52:14.403Z,75.40
2018-09-14T05:54:43.107Z,75.65
2018-09-14T05:57:11.968Z,74.81
2018-09-14T05:59:40.797Z,74.72
2018-09-14T06:02:09.497Z,74.60
2018-09-14T06:04:38.313Z,74.79
2018-09-14T06:07:07.075Z,74.10
2018-09-14T06:09:35.859Z,73.82
2018-09-14T06:12:04.676Z,73.27
2018-09-14T06:14:33.641Z,73.19
2018-09-14T06:17:02.521Z,72.90
2018-09-14T06:19:31.279Z,73.25
2018-09-14T06:22:00.263Z,73.19
2018-09-14T06:24:29.328Z,72.37
2018-09-14T06:26:58.088Z,72.43
2018-09-14T06:29:27.447Z,72.43
2018-09-14T06:31:56.240Z,72.17
2018-09-14T06:34:24.940Z,72.11
2018-09-14T06:36:53.691Z,71.32
2018-09-14T06:39:22.420Z,71.17
2018-09-14T06:41:51.157Z,71.33
2018-09-14T06:44:19.967Z,70.41
2018-09-14T06:46:48.842Z,70.14
2018-09-14T06:49:17.630Z,70.37
2018-09-14T06:51:46.412Z,69.43
2018-09-14T06:54:15.431Z,69.24
2018-09-14T06:56:44.122Z,68.58
2018-09-14T06:59:12.830Z,68.50
2018-09-14T07:01:41.514Z,68.59
2018-09-14T07:04:10.256Z,68.25
2018-09-14T07:06:39.200Z,68.29
2018-09-14T07:09:09.034Z,67.71
2018-09-14T07:11:37.886Z,67.33
2018-09-14T07:14:09.801Z,67.53
2018-09-14T07:16:38.501Z,67.18
2018-09-14T07:19:07.649Z,66.40
2018-09-14T07:21:36.485Z,65.19
2018-09-14T07:24:05.267Z,65.38
2018-09-14T07:26:34.088Z,64.84
2018-09-14T07:29:02.955Z,65.01
2018-09-14T07:31:31.642Z,64.54
2018-09-14T07:34:00.476Z,64.02
2018-09-14T07:36:29.357Z,63.94
2018-09-14T07:38:58.208Z,63.10
2018-09-14T07:41:27.323Z,63.06
2018-09-14T07:43:56.244Z,63.04
2018-09-14T07:46:24.987Z,62.32
2018-09-14T07:48:53.937Z,62.55
2018-09-14T07:51:30.722Z,61.46
2018-09-14T07:53:59.962Z,61.94
2018-09-14T07:56:28.763Z,61.01
2018-09-14T07:58:57.622Z,61.01
2018-09-14T08:01:26.499Z,60.93
2018-09-14T08:03:55.590Z,60.10
2018-09-14T08:06:24.389Z,60.15
2018-09-14T08:08:53.112Z,60.03
2018-09-14T08:11:21.932Z,60.45
2018-09-14T08:13:50.763Z,59.57
2018-09-14T08:16:20.223Z,60.40
2018-09-14T08:18:49.283Z,59.91
2018-09-14T08:21:18.148Z,59.02
2018-09-14T08:23:46.936Z,58.67
2018-09-14T08:26:16.783Z,58.38
2018-09-14T08:28:45.650Z,57.20
2018-09-14T08:31:14.724Z,56.76
2018-09-14T08:33:43.654Z,57.46
2018-09-14T08:36:24.693Z,56.56
2018-09-14T08:42:19.915Z,55.00
2018-09-14T08:44:48.835Z,54.96
2018-09-14T08:47:17.627Z,54.60
2018-09-14T08:49:46.638Z,54.51
2018-09-14T08:52:16.292Z,53.65
2018-09-14T08:54:45.124Z,52.95
2018-09-14T08:57:13.790Z,52.81
2018-09-14T08:59:42.677Z,52.46
2018-09-14T09:02:11.588Z,52.74
2018-09-14T09:04:40.402Z,52.18
2018-09-14T09:07:10.317Z,49.38
2018-09-14T09:14:26.436Z,49.64
2018-09-14T09:16:55.173Z,49.09
2018-09-14T09:19:23.918Z,48.66
2018-09-14T09:21:52.634Z,47.52
2018-09-14T09:24:22.463Z,47.56
2018-09-14T09:26:51.295Z,47.92
2018-09-14T09:29:20.032Z,47.76
2018-09-14T09:31:48.914Z,46.51
2018-09-14T09:34:17.938Z,45.57
2018-09-14T09:36:46.630Z,45.11
2018-09-14T09:39:15.586Z,46.38
2018-09-14T09:41:44.442Z,45.61
2018-09-14T09:44:13.135Z,44.07
2018-09-14T09:46:41.923Z,45.81
2018-09-14T09:49:10.697Z,44.71
2018-09-14T09:51:39.531Z,43.68
2018-09-14T09:54:08.387Z,45.62
2018-09-14T09:56:37.114Z,44.47
2018-09-14T09:59:13.261Z,43.33
2018-09-14T10:01:56.247Z,40.80
2018-09-14T10:05:30.082Z,42.39
2018-09-14T10:07:59.005Z,38.03
2018-09-14T10:10:27.658Z,36.69
2018-09-14T10:12:56.507Z,36.64
2018-09-14T10:15:25.380Z,37.20
2018-09-14T10:17:54.128Z,36.44
2018-09-14T10:20:22.856Z,34.56
2018-09-14T10:22:52.007Z,33.99
2018-09-14T10:25:20.763Z,34.54
2018-09-14T10:27:49.471Z,33.18
2018-09-14T10:30:18.172Z,33.31
2018-09-14T10:32:46.971Z,34.95
2018-09-14T10:35:15.716Z,34.31
2018-09-14T10:37:44.459Z,34.16
2018-09-14T10:40:13.326Z,33.25
2018-09-14T10:42:42.128Z,33.71
2018-09-14T10:45:10.868Z,32.12
2018-09-14T10:47:39.783Z,31.88
2018-09-14T10:50:08.585Z,32.14
2018-09-14T10:52:37.263Z,29.72
2018-09-14T10:55:06.139Z,30.53
2018-09-14T10:57:34.930Z,31.51
2018-09-14T11:00:05.089Z,30.01
2018-09-14T11:02:33.825Z,29.83
2018-09-14T11:05:02.592Z,30.17
2018-09-14T11:07:31.327Z,29.73
2018-09-14T11:10:00.102Z,29.30
2018-09-14T11:12:28.810Z,29.12
2018-09-14T11:14:57.634Z,28.77
2018-09-14T11:17:26.377Z,29.14
2018-09-14T11:19:55.114Z,28.39
2018-09-14T11:22:24.606Z,28.81
2018-09-14T11:24:53.393Z,30.15
2018-09-14T11:27:22.151Z,27.57
2018-09-14T11:29:50.992Z,29.00
2018-09-14T11:32:19.760Z,27.49
2018-09-14T11:34:48.512Z,27.88
2018-09-14T11:37:17.377Z,28.17
2018-09-14T11:39:46.129Z,27.33
2018-09-14T11:42:14.877Z,27.58
2018-09-14T11:44:43.539Z,27.98
2018-09-14T11:47:12.290Z,27.57
2018-09-14T11:49:41.198Z,26.19
2018-09-14T11:52:09.972Z,26.09
2018-09-14T11:54:38.700Z,27.28
2018-09-14T11:57:07.395Z,26.45
2018-09-14T11:59:36.123Z,26.81
2018-09-14T12:02:04.862Z,26.66
2018-09-14T12:04:33.586Z,28.09
2018-09-14T12:07:02.295Z,27.73
2018-09-14T12:09:31.130Z,27.72
2018-09-14T12:11:59.852Z,27.61
2018-09-14T12:14:28.626Z,26.07
2018-09-14T12:16:57.408Z,27.45
2018-09-14T12:19:26.131Z,27.18
2018-09-14T12:21:54.934Z,26.53
2018-09-14T12:24:23.638Z,27.41
2018-09-14T12:26:52.367Z,27.90
2018-09-14T12:29:21.229Z,27.73
2018-09-14T12:31:49.992Z,27.67
2018-09-14T12:35:48.235Z,26.51
2018-09-14T12:38:16.891Z,27.67
2018-09-14T12:40:45.723Z,27.87
2018-09-14T12:43:14.457Z,27.45
2018-09-14T12:45:43.194Z,27.25
2018-09-14T12:48:11.884Z,27.66
2018-09-14T12:50:40.675Z,26.27
2018-09-14T12:53:09.405Z,26.19
2018-09-14T12:55:38.092Z,27.34
2018-09-14T12:58:07.201Z,26.44
2018-09-14T13:00:35.863Z,25.82
2018-09-14T13:03:04.654Z,26.19
2018-09-14T13:05:33.359Z,26.52
2018-09-14T13:08:02.038Z,27.32
2018-09-14T13:10:30.850Z,26.64
2018-09-14T13:12:59.550Z,28.06
2018-09-14T13:15:28.495Z,27.13
2018-09-14T13:17:57.183Z,26.93
2018-09-14T13:20:25.972Z,26.86
2018-09-14T13:22:54.634Z,26.91
2018-09-14T13:25:23.343Z,27.85
2018-09-14T13:27:52.076Z,27.95
2018-09-14T13:30:20.844Z,27.36
2018-09-14T13:32:51.706Z,25.71
2018-09-14T13:35:22.026Z,27.92
2018-09-14T13:37:50.939Z,27.42
2018-09-14T13:40:19.827Z,26.98
2018-09-14T13:42:48.844Z,26.57
2018-09-14T13:45:17.699Z,26.03
2018-09-14T13:47:46.546Z,27.53
2018-09-14T13:50:15.230Z,27.68
2018-09-14T13:52:44.016Z,27.23
2018-09-14T13:55:12.681Z,26.19
2018-09-14T13:57:41.329Z,26.58
2018-09-14T14:00:14.472Z,26.27
2018-09-14T14:02:43.315Z,26.50
2018-09-14T14:05:12.063Z,26.98
2018-09-14T14:07:40.814Z,26.42
2018-09-14T14:10:09.567Z,28.30
2018-09-14T14:12:38.339Z,25.58
2018-09-14T14:15:07.100Z,26.67
2018-09-14T14:17:36.107Z,26.55
2018-09-14T14:20:04.881Z,27.98
2018-09-14T14:22:33.564Z,27.88
2018-09-14T14:25:02.323Z,27.83
2018-09-14T14:27:31.037Z,28.35
2018-09-14T14:29:59.962Z,28.08
2018-09-14T14:32:29.394Z,28.30
2018-09-14T14:34:58.215Z,27.24
2018-09-14T14:37:27.004Z,27.45
2018-09-14T14:39:55.782Z,27.43
2018-09-14T14:42:24.530Z,28.44
2018-09-14T14:44:53.308Z,28.46
2018-09-14T14:47:22.134Z,28.23
2018-09-14T14:49:50.830Z,29.92
2018-09-14T14:52:19.527Z,29.70
2018-09-14T14:54:48.294Z,27.88
2018-09-14T14:57:17.132Z,28.85
2018-09-14T14:59:46.046Z,28.58
2018-09-14T15:02:14.742Z,29.68
2018-09-14T15:04:43.428Z,29.11
2018-09-14T15:07:12.219Z,29.31
2018-09-14T15:09:40.960Z,29.30
2018-09-14T15:12:10.572Z,30.71
2018-09-14T15:14:39.308Z,30.93
2018-09-14T15:17:08.114Z,31.96
2018-09-14T15:19:36.936Z,31.96
2018-09-14T15:22:05.830Z,31.65
2018-09-14T15:24:34.633Z,32.02
2018-09-14T15:27:03.418Z,32.20
2018-09-14T15:29:32.235Z,32.50
2018-09-14T15:32:01.234Z,32.32
2018-09-14T15:34:29.907Z,32.30
2018-09-14T15:36:58.581Z,32.32
2018-09-14T15:39:27.323Z,30.39
2018-09-14T15:41:56.021Z,31.78
2018-09-14T15:44:24.744Z,32.48
2018-09-14T15:46:53.431Z,32.16
2018-09-14T15:49:22.340Z,33.26
2018-09-14T15:51:51.023Z,33.40
2018-09-14T15:54:19.820Z,33.70
2018-09-14T15:56:48.515Z,33.27
2018-09-14T15:59:17.244Z,35.19
2018-09-14T16:01:47.134Z,34.34
2018-09-14T16:04:16.184Z,35.35
2018-09-14T16:06:45.066Z,35.15
2018-09-14T16:09:13.958Z,36.55
2018-09-14T16:11:42.592Z,35.97
2018-09-14T16:16:43.425Z,36.63
2018-09-14T16:19:12.199Z,37.44
2018-09-14T16:21:40.926Z,38.17
2018-09-14T16:24:09.828Z,38.12
2018-09-14T16:26:39.139Z,38.90
2018-09-14T16:29:07.902Z,38.15
2018-09-14T16:31:36.637Z,39.42
2018-09-14T16:34:05.311Z,39.27
2018-09-14T16:36:34.077Z,38.67
2018-09-14T16:39:03.059Z,39.52
2018-09-14T16:41:31.804Z,40.06
2018-09-14T16:44:00.622Z,40.18
2018-09-14T16:46:29.339Z,40.83
2018-09-14T16:48:58.058Z,40.51
2018-09-14T16:51:26.896Z,40.92
2018-09-14T16:53:55.566Z,41.16
2018-09-14T16:56:24.630Z,41.42
2018-09-14T16:58:54.428Z,41.59
2018-09-14T17:01:23.691Z,41.93
2018-09-14T17:03:52.756Z,43.07
2018-09-14T17:06:21.541Z,42.07
2018-09-14T17:08:50.362Z,42.27
2018-09-14T17:11:19.726Z,41.72
2018-09-14T17:13:48.433Z,42.68
2018-09-14T17:16:17.912Z,43.46
2018-09-14T17:18:46.863Z,44.11
2018-09-14T17:21:15.584Z,44.19
2018-09-14T17:23:44.311Z,43.41
2018-09-14T17:26:16.168Z,45.39
2018-09-14T17:28:45.236Z,44.85
2018-09-14T17:31:14.018Z,45.39
2018-09-14T17:33:42.825Z,44.68
2018-09-14T17:36:11.553Z,45.44
2018-09-14T17:38:40.277Z,45.29
2018-09-14T17:41:09.108Z,45.12
2018-09-14T17:43:37.858Z,44.63
2018-09-14T17:46:06.646Z,44.81
2018-09-14T17:48:35.526Z,45.65
2018-09-14T17:51:04.256Z,44.72
2018-09-14T17:53:33.036Z,44.63
2018-09-14T17:56:01.796Z,44.48
2018-09-14T17:58:30.629Z,44.73
2018-09-14T18:00:59.424Z,45.27
2018-09-14T18:03:28.303Z,45.37
2018-09-14T18:05:56.988Z,44.82
2018-09-14T18:08:25.755Z,45.46
2018-09-14T18:10:55.028Z,45.88
2018-09-14T18:13:23.898Z,46.54
2018-09-14T18:15:52.622Z,46.06
2018-09-14T18:18:21.299Z,46.21
2018-09-14T18:20:50.032Z,47.08
2018-09-14T18:23:18.720Z,47.07
2018-09-14T18:25:47.413Z,46.84
2018-09-14T18:28:16.230Z,47.39
2018-09-14T18:30:45.289Z,47.22
2018-09-14T18:33:14.025Z,47.50
2018-09-14T18:35:42.835Z,47.45
2018-09-14T18:38:12.740Z,47.37
2018-09-14T18:40:42.322Z,47.43
2018-09-14T18:43:11.121Z,48.43
2018-09-14T18:45:39.874Z,48.30
2018-09-14T18:48:08.567Z,48.50
2018-09-14T18:50:37.289Z,48.74
2018-09-14T18:53:05.994Z,49.28
2018-09-14T18:55:34.753Z,49.97
2018-09-14T18:58:03.531Z,49.31
2018-09-14T19:00:32.319Z,49.37
2018-09-14T19:03:01.102Z,49.38
2018-09-14T19:05:29.889Z,49.32
2018-09-14T19:07:58.510Z,49.16
2018-09-14T19:10:27.262Z,49.84
2018-09-14T19:12:56.029Z,50.17
2018-09-14T19:15:24.786Z,50.67
2018-09-14T19:17:53.612Z,51.30
2018-09-14T19:20:22.402Z,51.72
2018-09-14T19:22:51.102Z,51.98
2018-09-14T19:25:19.896Z,52.31
2018-09-14T19:27:48.675Z,52.24
2018-09-14T19:30:17.404Z,52.34
2018-09-14T19:32:46.071Z,52.22
2018-09-14T19:35:14.751Z,53.39
2018-09-14T19:37:43.435Z,53.51
2018-09-14T19:40:12.241Z,53.31
2018-09-14T19:42:40.921Z,53.40
2018-09-14T19:45:09.624Z,53.98
2018-09-14T19:47:38.744Z,52.64
2018-09-14T19:50:07.548Z,52.70
2018-09-14T19:52:36.367Z,54.24
2018-09-14T19:55:05.155Z,54.50
2018-09-14T19:57:33.912Z,54.56
2018-09-14T20:00:02.727Z,53.87
2018-09-14T20:02:31.464Z,54.70
2018-09-14T20:05:00.353Z,53.74
2018-09-14T20:07:29.119Z,53.60
2018-09-14T20:09:57.810Z,54.01
2018-09-14T20:12:26.656Z,54.99
2018-09-14T20:14:55.422Z,55.60
2018-09-14T20:17:24.275Z,54.98
2018-09-14T20:19:52.992Z,54.45
2018-09-14T20:22:25.931Z,54.58
2018-09-14T20:24:54.654Z,54.83
2018-09-14T20:27:23.405Z,54.47
2018-09-14T20:29:52.283Z,55.27
2018-09-14T20:32:21.876Z,55.86
2018-09-14T20:34:50.575Z,55.58
2018-09-14T20:37:19.566Z,55.54
2018-09-14T20:39:48.366Z,55.86
2018-09-14T20:42:17.175Z,56.74
2018-09-14T20:44:45.991Z,56.96
2018-09-14T20:47:16.163Z,56.07
2018-09-14T20:49:44.930Z,56.29
2018-09-14T20:52:13.704Z,56.96
2018-09-14T20:54:42.349Z,57.21
2018-09-14T20:57:11.149Z,57.48
2018-09-14T20:59:39.935Z,57.71
2018-09-14T21:02:08.832Z,57.52
2018-09-14T21:04:37.584Z,57.87
2018-09-14T21:07:06.409Z,58.43
2018-09-14T21:09:35.123Z,58.83
2018-09-14T21:12:03.779Z,59.07
2018-09-14T21:14:32.538Z,58.82
2018-09-14T21:17:01.284Z,58.98
2018-09-14T21:19:29.979Z,58.95
2018-09-14T21:21:58.709Z,59.22
2018-09-14T21:24:27.500Z,59.75
2018-09-14T21:26:56.184Z,59.45
2018-09-14T21:29:25.070Z,59.61
2018-09-14T21:31:53.839Z,59.12
2018-09-14T21:34:22.901Z,59.74
2018-09-14T21:36:51.696Z,59.44
2018-09-14T21:39:20.530Z,59.88
2018-09-14T21:41:49.293Z,59.73
2018-09-14T21:44:18.068Z,59.43
2018-09-14T21:46:46.873Z,60.01
2018-09-14T21:49:20.395Z,59.65
2018-09-14T21:51:49.116Z,58.67
2018-09-14T21:54:17.863Z,60.42
2018-09-14T21:56:46.663Z,60.00
2018-09-14T21:59:15.330Z,59.89
2018-09-14T22:01:44.082Z,60.04
2018-09-14T22:04:12.903Z,60.22
2018-09-14T22:06:41.590Z,60.19
2018-09-14T22:09:10.528Z,60.21
2018-09-14T22:11:39.239Z,60.54
2018-09-14T22:14:07.956Z,60.99
2018-09-14T22:16:36.663Z,60.91
2018-09-14T22:19:05.340Z,61.08
2018-09-14T22:21:34.089Z,60.65
2018-09-14T22:24:02.758Z,61.05
2018-09-14T22:26:31.430Z,61.11
2018-09-14T22:29:00.107Z,61.22
2018-09-14T22:31:28.781Z,61.58
2018-09-14T22:33:57.437Z,61.58
2018-09-14T22:36:26.141Z,61.89
2018-09-14T22:38:54.850Z,61.85
2018-09-14T22:41:23.651Z,61.79
2018-09-14T22:43:52.454Z,62.32
2018-09-14T22:46:21.162Z,61.23
2018-09-14T22:48:49.804Z,61.50
2018-09-14T22:51:18.511Z,61.47
2018-09-14T22:53:47.309Z,61.48
2018-09-14T22:56:15.947Z,62.08
2018-09-14T22:58:44.624Z,62.09
2018-09-14T23:01:20.166Z,62.40
2018-09-14T23:03:50.025Z,62.81
2018-09-14T23:06:18.784Z,62.42
2018-09-14T23:08:47.489Z,63.31
2018-09-14T23:11:16.204Z,63.17
2018-09-14T23:13:44.923Z,63.42
2018-09-14T23:16:13.618Z,64.02
2018-09-14T23:18:42.387Z,63.44
2018-09-14T23:21:11.054Z,64.07
2018-09-14T23:23:39.720Z,64.43
2018-09-14T23:26:10.506Z,64.74
2018-09-14T23:28:39.143Z,64.72
2018-09-14T23:31:07.809Z,64.30
2018-09-14T23:33:37.897Z,64.57
2018-09-14T23:36:06.668Z,64.31
2018-09-14T23:38:35.314Z,64.64
2018-09-14T23:41:05.386Z,64.61
2018-09-14T23:43:34.074Z,64.82
2018-09-14T23:46:06.055Z,65.78
2018-09-14T23:48:34.743Z,65.29
2018-09-14T23:51:03.479Z,66.48
2018-09-14T23:53:32.352Z,65.84
2018-09-14T23:56:01.022Z,65.84
2018-09-14T23:58:29.783Z,66.68
